• Join FlightAware (Why Join?)
  • Login
  • US Flag 
04:33AM EDT


 

Airport Tracker/Info


-or-


 

Live Flight TrackerFlight Track Log ✈ N777FZ ✈ 09-May-2014 ✈ KDUG - KABI

Flight Track Log - Related Links

Times and Time Zones

All times are in EDT time to prevent confusion due to time zone crossing. See the N777FZ flight status page for this flight to view local times or setup timezone preferences in your user account.

Time Position Orientation Groundspeed Altitude Reporting Facility
EDT Latitude Longitude Course Direction KTS MPH feet Rate Location/Type
11:04PM 31.4950 -109.4931 41° Northeast 226 260 11,400  Level Albuquerque Center
11:05PM 31.5489 -109.4225 48° Northeast 284 327 13,800 2,040 Climbing Albuquerque Center
11:06PM 31.5831 -109.3356 65° Northeast 309 356 15,700 1,860 Climbing Albuquerque Center
11:07PM 31.6217 -109.2344 66° East 331 381 17,700 1,860 Climbing Albuquerque Center
11:08PM 31.6653 -109.1300 64° Northeast 350 403 19,600 1,800 Climbing Albuquerque Center
11:09PM 31.7114 -109.0186 64° Northeast 371 427 21,400 1,740 Climbing Albuquerque Center
11:10PM 31.7572 -108.9036 65° Northeast 383 441 23,200 1,920 Climbing Albuquerque Center
11:11PM 31.8133 -108.7633 65° Northeast 392 451 25,400 1,920 Climbing Albuquerque Center
11:12PM 31.8619 -108.6456 64° Northeast 396 456 27,200 1,740 Climbing Albuquerque Center
11:13PM 31.9094 -108.5253 65° Northeast 403 464 29,000 1,740 Climbing Albuquerque Center
11:14PM 31.9117 -108.3817 89° East 419 482 30,800 1,680 Climbing Albuquerque Center
11:15PM 31.9047 -108.2447 93° East 420 483 32,500 1,500 Climbing Albuquerque Center
11:16PM 31.8997 -108.1067 92° East 420 483 33,900 1,200 Climbing Albuquerque Center
11:17PM 31.8947 -107.9631 92° East 434 499 35,000 1,020 Climbing Albuquerque Center
11:18PM 31.8875 -107.8161 93° East 447 514 36,000 960 Climbing Albuquerque Center
11:19PM 31.8817 -107.6667 93° East 455 524 37,000 960 Climbing Albuquerque Center
11:20PM 31.8750 -107.5172 93° East 458 527 38,000 900 Climbing Albuquerque Center
11:21PM 31.8706 -107.3675 92° East 460 529 38,900 480 Climbing Albuquerque Center
11:22PM 31.8619 -107.1808 93° East 478 550 39,000  Climbing Albuquerque Center
11:23PM 31.8531 -107.0222 94° East 487 560 39,000  Level Albuquerque Center
11:24PM 31.8458 -106.8617 93° East 491 565 39,000  Level Albuquerque Center
11:25PM 31.8375 -106.7022 93° East 493 567 39,000  Level Albuquerque Center
11:26PM 31.8292 -106.5428 93° East 492 566 39,000  Level Albuquerque Center
11:27PM 31.8239 -106.3800 92° East 497 572 39,000  Level Albuquerque Center
11:28PM 31.8142 -106.1931 93° East 496 571 39,000  Level Albuquerque Center
11:29PM 31.8064 -106.0353 93° East 486 559 39,000  Level Albuquerque Center
11:30PM 31.7956 -105.8764 95° East 487 560 39,000  Level Albuquerque Center
11:32PM 31.7875 -105.7044 93° East 490 564 39,000  Level Albuquerque Center
11:33PM 31.7794 -105.5439 93° East 489 563 39,000  Level Albuquerque Center
11:34PM 31.7717 -105.3817 93° East 497 572 39,000  Level Albuquerque Center
11:35PM 31.7600 -105.2228 95° East 493 567 39,000  Level Albuquerque Center
11:36PM 31.7522 -105.0617 93° East 494 568 39,000  Level Albuquerque Center
11:37PM 31.7586 -104.8986 87° East 494 568 39,000  Level Albuquerque Center
11:38PM 31.7761 -104.7372 83° East 496 571 39,000  Level Albuquerque Center
11:39PM 31.7894 -104.5742 84° East 497 572 39,000  Level Albuquerque Center
11:40PM 31.7953 -104.4108 88° East 497 572 39,000  Level Albuquerque Center
11:41PM 31.8067 -104.2444 85° East 504 580 39,000  Level Albuquerque Center
11:42PM 31.8208 -104.0436 85° East 510 587 39,000  Level Albuquerque Center
11:43PM 31.8383 -103.8103 85° East 510 587 39,000  Level Fort Worth Center
11:44PM 31.8469 -103.7086 84° East 511 588 39,000  Level Albuquerque Center
11:45PM 31.8558 -103.5411 86° East 516 594 39,000  Level Albuquerque Center
11:46PM 31.8672 -103.3758 85° East 515 593 39,000  Level Albuquerque Center
11:47PM 31.8800 -103.2144 85° East 506 582 39,000  Level Albuquerque Center
11:48PM 31.9142 -103.0497 76° East 505 581 39,000  Level Albuquerque Center
11:48PM 31.9317 -102.9503 78° East 505 581 39,000  Level Fort Worth Center
11:49PM 31.9631 -102.7850 77° East 513 590 39,000  Level Fort Worth Center
11:50PM 31.9942 -102.6211 77° East 514 592 39,000  Level Fort Worth Center
11:51PM 32.0253 -102.4531 78° East 518 596 39,000 -60 Level Fort Worth Center
11:52PM 32.0561 -102.2850 78° East 519 597 38,900 -1,080 Descending Fort Worth Center
11:53PM 32.0878 -102.1161 77° East 525 604 36,900 -2,160 Descending Fort Worth Center
11:54PM 32.1158 -101.9558 78° East 503 579 34,600 -2,280 Descending Fort Worth Center
11:55PM 32.1469 -101.7939 77° East 499 574 32,300 -2,400 Descending Fort Worth Center
11:56PM 32.1775 -101.6197 78° East 503 579 29,800 -2,400 Descending Fort Worth Center
11:57PM 32.2064 -101.4603 78° East 503 579 27,500 -2,280 Descending Fort Worth Center
11:58PM 32.2336 -101.3019 78° East 495 570 25,200 -2,220 Descending Fort Worth Center
12:00AM 32.2606 -101.1542 78° East 487 560 23,000 -2,220 Descending Fort Worth Center
12:01AM 32.2864 -101.0031 79° East 475 547 20,700 -2,280 Descending Fort Worth Center
12:02AM 32.3125 -100.8553 78° East 467 537 18,500 -2,160 Descending Fort Worth Center
12:03AM 32.3381 -100.7108 78° East 454 522 16,400 -2,340 Descending Fort Worth Center
12:03AM 32.3547 -100.6511 72° East 423 487 15,500 -1,800 Descending Fort Worth Center
12:04AM 32.3614 -100.5758 84° East 428 493 14,600 -1,620 Descending Fort Worth Center
12:05AM 32.3883 -100.4144 79° East 421 484 12,700 -1,800 Descending Fort Worth Center
12:06AM 32.4117 -100.2833 78° East 416 479 11,000 -1,440 Descending Fort Worth Center
12:07AM 32.4289 -100.1781 79° East 361 415 9,800 -1,260 Descending Fort Worth Center
12:07AM 32.4300 -100.1553 87° East 317 365 9,500 -1,680 Descending Fort Worth Center
12:08AM 32.4456 -100.0792 76° East 328 377 8,100 -1,740 Descending Fort Worth Center
12:09AM 32.4589 -99.9858 80° East 307 353 6,400 -1,740 Descending Fort Worth Center
12:10AM 32.4606 -99.8969 89° East 287 330 4,700 -1,380 Descending Fort Worth Center
12:11AM 32.4675 -99.8139 84° East 268 308 3,700 -960 Descending Fort Worth Center
12:11AM 32.4736 -99.7969 67° East 240 276 3,600 -420 Descending Fort Worth Center
12:12AM 32.4944 -99.7533 60° Northeast 229 264 3,300 -360 Descending Fort Worth Center
12:13AM 32.4878 -99.7036 99° East 185 213 3,000 -480 Descending Fort Worth Center
12:14AM 32.4583 -99.6853 152° Southeast 142 163 2,400 -600 Descending Fort Worth Center
12:15AM 32.4283 -99.6850 180° South 119 137 1,900 -300 Descending Fort Worth Center
12:16AM 32.4014 -99.6844 179° South 107 123 1,800 -120 Descending Fort Worth Center